createdAt,value
2023-01-25T00:23:48.796Z,20.37
2023-01-25T00:24:48.654Z,20.36
2023-01-25T00:25:48.555Z,20.37
2023-01-25T00:26:48.478Z,20.36
2023-01-25T00:27:48.379Z,20.36
2023-01-25T00:28:48.292Z,20.36
2023-01-25T00:29:48.204Z,20.36
2023-01-25T00:30:48.096Z,20.36
2023-01-25T00:31:48.128Z,20.36
2023-01-25T00:32:47.977Z,20.35
2023-01-25T00:33:47.835Z,20.35
2023-01-25T00:34:47.747Z,20.35
2023-01-25T00:35:47.655Z,20.36
2023-01-25T00:36:47.552Z,20.37
2023-01-25T00:37:47.459Z,20.36
2023-01-25T00:38:47.373Z,20.36
2023-01-25T00:57:45.613Z,20.33
2023-01-25T00:58:45.550Z,20.33
2023-01-25T00:59:45.424Z,20.34
2023-01-25T01:00:45.417Z,20.33
2023-01-25T01:01:45.240Z,20.33
2023-01-25T01:02:45.138Z,20.34
2023-01-25T01:03:45.062Z,20.34
2023-01-25T01:04:45.019Z,20.33
2023-01-25T02:09:38.818Z,20.36
2023-01-25T02:11:38.614Z,20.35
2023-01-25T02:12:38.511Z,20.34
2023-01-25T02:13:38.419Z,20.34
2023-01-25T02:14:38.319Z,20.34
2023-01-25T02:15:38.237Z,20.34
2023-01-25T02:16:38.110Z,20.33
2023-01-25T02:18:37.918Z,20.33
2023-01-25T02:19:37.870Z,20.33
2023-01-25T02:20:37.752Z,20.33
2023-01-25T02:21:37.637Z,20.34
2023-01-25T02:22:37.548Z,20.33
2023-01-25T02:23:37.465Z,20.34
2023-01-25T02:24:37.351Z,20.32
2023-01-25T02:25:37.258Z,20.33
2023-01-25T02:26:37.171Z,20.32
2023-01-25T02:27:37.080Z,20.32
2023-01-25T02:28:36.986Z,20.32
2023-01-25T02:29:36.887Z,20.33
2023-01-25T02:30:36.807Z,20.32
2023-01-25T02:31:36.800Z,20.33
2023-01-25T02:32:36.614Z,20.33
2023-01-25T02:33:36.517Z,20.33
2023-01-25T02:34:36.442Z,20.32
2023-01-25T02:35:36.341Z,20.32
2023-01-25T02:36:36.383Z,20.32
2023-01-25T02:37:36.158Z,20.32
2023-01-25T02:38:36.050Z,20.33
2023-01-25T02:39:35.970Z,20.34
2023-01-25T02:41:35.781Z,20.33
2023-01-25T02:43:35.581Z,20.31
2023-01-25T02:44:35.482Z,20.31
2023-01-25T02:45:35.400Z,20.31
2023-01-25T02:46:35.335Z,20.31
2023-01-25T02:47:35.225Z,20.31
2023-01-25T02:48:35.116Z,20.31
2023-01-25T02:49:35.024Z,20.32
2023-01-25T02:50:34.926Z,20.31
2023-01-25T04:09:27.516Z,20.40
2023-01-25T04:10:27.390Z,20.41
2023-01-25T04:11:27.296Z,20.41
2023-01-25T04:12:27.187Z,20.43
2023-01-25T04:13:27.088Z,20.45
2023-01-25T04:14:43.321Z,20.47
2023-01-25T04:16:26.768Z,20.49
2023-01-25T04:17:26.609Z,20.49
2023-01-25T04:18:26.492Z,20.49
2023-01-25T04:19:26.373Z,20.50
2023-01-25T04:20:26.274Z,20.51
2023-01-25T04:21:26.130Z,20.52
2023-01-25T04:22:26.023Z,20.53
2023-01-25T04:23:25.905Z,20.55
2023-01-25T04:24:25.810Z,20.56
2023-01-25T04:25:25.646Z,20.57
2023-01-25T04:26:25.534Z,20.57
2023-01-25T04:27:25.409Z,20.58
2023-01-25T04:28:25.298Z,20.59
2023-01-25T04:29:39.153Z,20.59
2023-01-25T04:30:26.062Z,20.59
2023-01-25T04:31:25.034Z,20.60
2023-01-25T04:37:24.221Z,20.64
2023-01-25T04:38:24.091Z,20.65
2023-01-25T04:39:23.984Z,20.66
2023-01-25T04:40:23.857Z,20.67
2023-01-25T04:41:23.742Z,20.68
2023-01-25T04:42:23.619Z,20.68
2023-01-25T04:43:23.487Z,20.68
2023-01-25T04:44:23.378Z,20.68
2023-01-25T04:45:23.289Z,20.68
2023-01-25T04:46:23.204Z,20.68
2023-01-25T04:47:23.102Z,20.68
2023-01-25T04:48:22.976Z,20.69
2023-01-25T04:49:23.580Z,20.69
2023-01-25T04:50:22.771Z,20.68
2023-01-25T04:51:22.669Z,20.68
2023-01-25T04:52:22.541Z,20.69
2023-01-25T04:53:22.428Z,20.68
2023-01-25T04:54:22.312Z,20.68
2023-01-25T04:55:22.206Z,20.69
2023-01-25T04:56:22.090Z,20.69
2023-01-25T04:57:21.973Z,20.69
2023-01-25T04:58:21.870Z,20.69
2023-01-25T04:59:21.744Z,20.70
2023-01-25T05:00:21.658Z,20.69
2023-01-25T05:01:21.587Z,20.69
2023-01-25T05:02:21.546Z,20.69
2023-01-25T05:03:21.318Z,20.69
2023-01-25T05:04:21.223Z,20.70
2023-01-25T05:05:21.123Z,20.69
2023-01-25T05:06:21.042Z,20.70
2023-01-25T05:07:20.970Z,20.70
2023-01-25T05:08:20.883Z,20.71
2023-01-25T05:09:20.778Z,20.70
2023-01-25T05:10:20.679Z,20.70
2023-01-25T05:11:20.567Z,20.70
2023-01-25T05:12:20.484Z,20.69
2023-01-25T05:13:20.394Z,20.69
2023-01-25T05:14:20.295Z,20.69
2023-01-25T05:15:20.205Z,20.69
2023-01-25T05:16:20.169Z,20.68
2023-01-25T05:17:19.978Z,20.68
2023-01-25T05:18:19.847Z,20.67
2023-01-25T05:19:19.735Z,20.67
2023-01-25T05:20:19.613Z,20.67
2023-01-25T05:21:19.495Z,20.66
2023-01-25T05:22:19.383Z,20.66
2023-01-25T05:23:19.258Z,20.66
2023-01-25T05:24:19.210Z,20.65
2023-01-25T05:25:19.011Z,20.65
2023-01-25T05:26:18.881Z,20.64
2023-01-25T05:27:18.767Z,20.64
2023-01-25T05:28:18.658Z,20.63
2023-01-25T05:29:18.547Z,20.63
2023-01-25T05:30:18.416Z,20.63
2023-01-25T05:31:18.454Z,20.63
2023-01-25T05:32:18.174Z,20.63
2023-01-25T05:33:18.063Z,20.64
2023-01-25T05:34:17.942Z,20.64
2023-01-25T05:35:17.845Z,20.64
2023-01-25T05:36:17.713Z,20.63
2023-01-25T05:37:17.653Z,20.64
2023-01-25T05:38:17.483Z,20.63
2023-01-25T05:39:17.359Z,20.62
2023-01-25T05:40:17.241Z,20.62
2023-01-25T05:41:17.116Z,20.61
2023-01-25T05:42:17.004Z,20.61
2023-01-25T05:43:16.896Z,20.61
2023-01-25T05:44:16.761Z,20.61
2023-01-25T05:45:16.641Z,20.59
2023-01-25T05:46:16.623Z,20.59
2023-01-25T05:47:16.415Z,20.58
2023-01-25T05:48:16.300Z,20.58
2023-01-25T05:49:16.172Z,20.57
2023-01-25T05:50:16.060Z,20.57
2023-01-25T05:51:15.936Z,20.57
2023-01-25T05:52:15.821Z,20.57
2023-01-25T05:53:15.703Z,20.56
2023-01-25T05:54:15.593Z,20.56
2023-01-25T05:55:15.962Z,20.55
2023-01-25T05:56:15.364Z,20.55
2023-01-25T05:57:15.261Z,20.54
2023-01-25T05:58:15.142Z,20.55
2023-01-25T05:59:15.034Z,20.55
2023-01-25T06:00:14.916Z,20.55
2023-01-25T06:29:11.643Z,20.57
2023-01-25T06:30:11.535Z,20.62
2023-01-25T06:31:11.459Z,20.68
2023-01-25T06:32:11.307Z,20.74
2023-01-25T06:33:11.152Z,20.80
2023-01-25T06:34:11.025Z,20.87
2023-01-25T06:35:11.241Z,20.92
2023-01-25T06:36:10.816Z,20.97
2023-01-25T06:37:10.746Z,21.02
2023-01-25T06:38:10.670Z,21.07
2023-01-25T06:39:11.120Z,21.11
2023-01-25T06:40:10.527Z,21.16
2023-01-25T06:41:11.221Z,21.20
2023-01-25T06:42:10.355Z,21.23
2023-01-25T06:43:10.276Z,21.26
2023-01-25T06:44:10.180Z,21.29
2023-01-25T06:45:10.501Z,21.33
2023-01-25T06:46:10.091Z,21.36
2023-01-25T06:47:09.900Z,21.39
2023-01-25T06:48:11.153Z,21.41
2023-01-25T06:49:09.648Z,21.43
2023-01-25T06:50:09.522Z,21.43
2023-01-25T06:51:09.366Z,21.44
2023-01-25T06:52:09.227Z,21.43
2023-01-25T06:53:09.098Z,21.43
2023-01-25T06:54:08.944Z,21.44
2023-01-25T06:55:09.112Z,21.45
2023-01-25T06:56:10.740Z,21.47
2023-01-25T06:57:08.539Z,21.49
2023-01-25T06:58:08.393Z,21.51
2023-01-25T06:59:08.260Z,21.54
2023-01-25T07:00:08.110Z,21.55
2023-01-25T07:01:07.968Z,21.57
2023-01-25T07:02:07.880Z,21.59
2023-01-25T07:03:07.755Z,21.61
2023-01-25T07:04:08.972Z,21.63
2023-01-25T07:05:07.775Z,21.65
2023-01-25T07:06:07.251Z,21.67
2023-01-25T07:07:07.110Z,21.70
2023-01-25T07:08:06.968Z,21.72
2023-01-25T07:09:06.810Z,21.73
2023-01-25T07:10:06.667Z,21.76
2023-01-25T07:11:06.737Z,21.77
2023-01-25T07:12:06.376Z,21.80
2023-01-25T07:13:06.229Z,21.82
2023-01-25T07:14:06.108Z,21.82
2023-01-25T07:15:06.007Z,21.85
2023-01-25T07:16:05.793Z,21.87
2023-01-25T07:17:05.645Z,21.88
2023-01-25T07:18:15.670Z,21.91
2023-01-25T07:19:06.367Z,21.93
2023-01-25T07:20:05.213Z,21.96
2023-01-25T07:21:05.069Z,21.98
2023-01-25T07:22:04.976Z,21.97
2023-01-25T08:24:57.516Z,21.14
2023-01-25T08:25:57.459Z,20.90
2023-01-25T08:26:57.297Z,20.75
2023-01-25T08:28:57.082Z,20.59
2023-01-25T08:29:56.967Z,20.54
2023-01-25T08:30:57.771Z,20.50
2023-01-25T08:32:56.671Z,20.38
2023-01-25T08:33:57.163Z,20.35
2023-01-25T08:34:56.435Z,20.29
2023-01-25T08:35:56.295Z,20.26
2023-01-25T08:36:56.179Z,20.28
2023-01-25T08:37:56.052Z,20.39
2023-01-25T08:38:55.942Z,20.50
2023-01-25T08:39:55.840Z,20.62
2023-01-25T08:40:55.663Z,20.73
2023-01-25T08:41:55.539Z,20.85
2023-01-25T08:42:56.168Z,20.96
2023-01-25T08:43:55.279Z,21.06
2023-01-25T08:44:55.138Z,21.15
2023-01-25T08:45:54.995Z,21.22
2023-01-25T08:51:56.204Z,18.81
2023-01-25T08:52:55.130Z,19.04
2023-01-25T09:22:55.693Z,21.49
2023-01-25T10:07:46.089Z,22.32
2023-01-25T10:18:45.083Z,22.33
2023-01-25T10:19:44.972Z,22.33
2023-01-25T10:24:45.203Z,22.24
2023-01-25T11:41:36.200Z,21.52
2023-01-25T11:42:36.132Z,21.52
2023-01-25T11:43:36.017Z,21.52
2023-01-25T11:44:35.924Z,21.51
2023-01-25T11:45:35.848Z,21.51
2023-01-25T11:46:35.793Z,21.51
2023-01-25T11:47:35.651Z,21.51
2023-01-25T11:48:35.566Z,21.51
2023-01-25T11:49:35.464Z,21.50
2023-01-25T11:50:35.381Z,21.50
2023-01-25T11:51:35.295Z,21.50
2023-01-25T11:52:35.202Z,21.49
2023-01-25T11:53:35.116Z,21.48
2023-01-25T11:54:35.045Z,21.47
2023-01-25T11:55:34.957Z,21.46
2023-01-25T11:56:34.884Z,21.44
2023-01-25T13:41:26.329Z,20.69
2023-01-25T13:42:26.215Z,20.69
2023-01-25T13:43:26.108Z,20.69
2023-01-25T13:44:26.003Z,20.69
2023-01-25T13:45:25.924Z,20.69
2023-01-25T13:46:25.776Z,20.69
2023-01-25T13:47:25.666Z,20.69
2023-01-25T13:48:25.546Z,20.69
2023-01-25T13:49:25.430Z,20.69
2023-01-25T13:50:25.301Z,20.69
2023-01-25T13:51:25.194Z,20.68
2023-01-25T13:52:25.077Z,20.69
2023-01-25T13:53:25.001Z,20.69
2023-01-25T14:47:19.957Z,20.58
2023-01-25T14:48:19.872Z,20.58
2023-01-25T14:49:19.766Z,20.58
2023-01-25T14:50:19.653Z,20.58
2023-01-25T14:51:19.570Z,20.57
2023-01-25T14:52:19.465Z,20.57
2023-01-25T14:53:19.351Z,20.57
2023-01-25T14:54:19.268Z,20.56
2023-01-25T14:55:19.154Z,20.56
2023-01-25T14:56:19.052Z,20.56
2023-01-25T14:57:18.942Z,20.56
2023-01-25T14:58:18.840Z,20.56
2023-01-25T14:59:18.718Z,20.56
2023-01-25T15:00:18.607Z,20.56
2023-01-25T15:01:18.561Z,20.55
2023-01-25T15:02:18.427Z,20.55
2023-01-25T15:03:18.267Z,20.54
2023-01-25T15:04:18.167Z,20.54
2023-01-25T15:05:18.067Z,20.53
2023-01-25T15:06:17.937Z,20.53
2023-01-25T15:07:18.623Z,20.53
2023-01-25T15:08:17.729Z,20.53
2023-01-25T15:09:17.614Z,20.52
2023-01-25T15:10:17.489Z,20.52
2023-01-25T15:11:17.372Z,20.52
2023-01-25T15:12:17.253Z,20.51
2023-01-25T15:13:17.151Z,20.51
2023-01-25T15:14:17.040Z,20.51
2023-01-25T15:15:16.928Z,20.51
2023-01-25T15:16:16.867Z,20.50
2023-01-25T15:17:16.703Z,20.51
2023-01-25T15:18:16.614Z,20.51
2023-01-25T15:19:16.478Z,20.50
2023-01-25T15:20:16.376Z,20.50
2023-01-25T15:21:16.250Z,20.50
2023-01-25T15:22:16.153Z,20.50
2023-01-25T15:23:16.050Z,20.50
2023-01-25T15:24:15.967Z,20.50
2023-01-25T15:25:23.871Z,20.49
2023-01-25T15:26:16.711Z,20.50
2023-01-25T15:27:15.576Z,20.49
2023-01-25T15:28:15.471Z,20.50
2023-01-25T15:29:15.344Z,20.49
2023-01-25T15:30:15.238Z,20.49
2023-01-25T15:31:15.255Z,20.49
2023-01-25T15:32:14.978Z,20.49
2023-01-25T16:05:11.005Z,20.48
2023-01-25T16:06:10.892Z,20.48
2023-01-25T16:07:10.791Z,20.48
2023-01-25T16:08:10.672Z,20.48
2023-01-25T16:09:10.590Z,20.48
2023-01-25T16:10:10.894Z,20.49
2023-01-25T16:11:10.354Z,20.49
2023-01-25T16:12:10.234Z,20.49
2023-01-25T16:13:10.131Z,20.48
2023-01-25T16:14:10.023Z,20.48
2023-01-25T16:15:09.909Z,20.48
2023-01-25T16:16:09.792Z,20.48
2023-01-25T16:17:09.677Z,20.48
2023-01-25T16:18:09.567Z,20.48
2023-01-25T16:19:09.446Z,20.48
2023-01-25T16:20:09.737Z,20.48
2023-01-25T16:21:10.505Z,20.48
2023-01-25T16:22:09.155Z,20.47
2023-01-25T16:23:09.051Z,20.47
2023-01-25T16:24:08.959Z,20.47
2023-01-25T16:25:08.844Z,20.47
2023-01-25T16:26:08.732Z,20.47
2023-01-25T16:27:08.627Z,20.48
2023-01-25T16:28:08.502Z,20.48
2023-01-25T16:29:08.426Z,20.48
2023-01-25T16:30:08.500Z,20.48
2023-01-25T16:31:08.866Z,20.48
2023-01-25T16:32:08.113Z,20.47
2023-01-25T16:33:07.964Z,20.47
2023-01-25T16:34:07.892Z,20.47
2023-01-25T16:35:07.767Z,20.47
2023-01-25T16:36:07.704Z,20.47
2023-01-25T16:37:07.546Z,20.47
2023-01-25T16:38:07.428Z,20.46
2023-01-25T16:39:07.327Z,20.46
2023-01-25T16:40:07.232Z,20.46
2023-01-25T16:42:07.016Z,20.46
2023-01-25T16:43:06.902Z,20.46
2023-01-25T16:44:06.813Z,20.46
2023-01-25T16:45:06.688Z,20.45
2023-01-25T16:46:06.607Z,20.45
2023-01-25T16:47:06.491Z,20.45
2023-01-25T16:48:06.380Z,20.46
2023-01-25T16:49:06.260Z,20.46
2023-01-25T16:50:06.162Z,20.47
2023-01-25T16:51:06.052Z,20.46
2023-01-25T16:52:05.948Z,20.46
2023-01-25T16:53:05.845Z,20.46
2023-01-25T16:54:05.755Z,20.45
2023-01-25T16:55:05.630Z,20.45
2023-01-25T16:56:05.525Z,20.45
2023-01-25T16:57:14.970Z,20.45
2023-01-25T16:58:06.307Z,20.45
2023-01-25T16:59:05.224Z,20.44
2023-01-25T17:00:05.057Z,20.45
2023-01-25T17:01:04.945Z,20.44
2023-01-25T18:01:57.860Z,20.41
2023-01-25T18:09:56.968Z,20.41
2023-01-25T18:10:56.872Z,20.41
2023-01-25T18:11:56.758Z,20.41
2023-01-25T18:13:04.466Z,20.40
2023-01-25T18:14:56.409Z,20.40
2023-01-25T18:15:56.288Z,20.40
2023-01-25T18:23:55.339Z,20.40
2023-01-25T18:24:55.166Z,20.40
2023-01-25T18:25:55.057Z,20.40
2023-01-25T18:26:54.939Z,20.40
2023-01-25T18:29:55.407Z,20.40
2023-01-25T19:40:46.948Z,20.38
2023-01-25T19:56:45.358Z,20.39
2023-01-25T19:58:45.140Z,20.38
2023-01-25T19:59:45.034Z,20.37
2023-01-25T20:00:44.932Z,20.37
2023-01-25T20:05:44.438Z,20.36
2023-01-25T20:06:44.360Z,20.37
2023-01-25T20:07:44.234Z,20.36
2023-01-25T20:08:44.133Z,20.37
2023-01-25T20:09:44.046Z,20.37
2023-01-25T20:10:43.937Z,20.36
2023-01-25T20:11:43.851Z,20.36
2023-01-25T20:12:43.744Z,20.37
2023-01-25T20:13:43.684Z,20.37
2023-01-25T20:14:43.528Z,20.37
2023-01-25T20:15:43.459Z,20.37
2023-01-25T20:16:43.323Z,20.37
2023-01-25T20:17:43.225Z,20.36
2023-01-25T20:18:43.149Z,20.36
2023-01-25T20:19:43.057Z,20.36
2023-01-25T20:20:42.910Z,20.36
2023-01-25T20:21:42.831Z,20.36
2023-01-25T20:22:42.721Z,20.36
2023-01-25T20:23:42.632Z,20.36
2023-01-25T20:24:42.534Z,20.37
2023-01-25T20:25:42.441Z,20.37
2023-01-25T20:26:42.328Z,20.37
2023-01-25T20:27:42.233Z,20.37
2023-01-25T20:28:42.165Z,20.37
2023-01-25T20:29:42.040Z,20.37
2023-01-25T20:30:41.969Z,20.38
2023-01-25T20:31:41.925Z,20.38
2023-01-25T20:32:41.775Z,20.37
2023-01-25T20:33:41.651Z,20.37
2023-01-25T20:34:41.545Z,20.37
2023-01-25T20:35:41.442Z,20.38
2023-01-25T20:36:41.354Z,20.38
2023-01-25T20:37:41.242Z,20.38
2023-01-25T20:38:41.157Z,20.38
2023-01-25T20:39:41.050Z,20.38
2023-01-25T20:40:40.950Z,20.39
2023-01-25T20:41:40.871Z,20.39
2023-01-25T20:42:40.748Z,20.40
2023-01-25T20:43:40.653Z,20.39
2023-01-25T20:44:40.591Z,20.38
2023-01-25T20:45:40.468Z,20.38
2023-01-25T20:46:40.445Z,20.37
2023-01-25T20:47:40.270Z,20.37
2023-01-25T20:48:40.170Z,20.36
2023-01-25T20:49:40.091Z,20.36
2023-01-25T20:50:39.976Z,20.36
2023-01-25T20:51:39.869Z,20.36
2023-01-25T20:52:39.767Z,20.37
2023-01-25T20:53:39.699Z,20.36
2023-01-25T20:54:39.572Z,20.37
2023-01-25T20:55:39.465Z,20.37
2023-01-25T20:56:39.376Z,20.36
2023-01-25T20:57:39.284Z,20.36
2023-01-25T20:58:39.176Z,20.37
2023-01-25T20:59:39.062Z,20.36
2023-01-25T21:00:39.045Z,20.37
2023-01-25T21:01:38.935Z,20.36
2023-01-25T21:02:38.786Z,20.36
2023-01-25T21:03:38.675Z,20.37
2023-01-25T21:04:38.567Z,20.38
2023-01-25T21:05:38.462Z,20.38
2023-01-25T21:06:38.372Z,20.37
2023-01-25T21:07:38.264Z,20.37
2023-01-25T21:08:38.158Z,20.38
2023-01-25T21:09:38.068Z,20.38
2023-01-25T21:10:37.983Z,20.37
2023-01-25T21:11:37.870Z,20.37
2023-01-25T21:12:37.767Z,20.37
2023-01-25T21:13:37.688Z,20.37
2023-01-25T21:14:37.577Z,20.36
2023-01-25T21:15:37.478Z,20.36
2023-01-25T21:16:37.453Z,20.36
2023-01-25T21:17:37.274Z,20.36
2023-01-25T21:18:37.200Z,20.36
2023-01-25T21:19:37.094Z,20.37
2023-01-25T21:20:36.981Z,20.38
2023-01-25T21:21:36.880Z,20.38
2023-01-25T21:22:36.782Z,20.39
2023-01-25T21:23:36.688Z,20.38
2023-01-25T21:24:36.590Z,20.38
2023-01-25T21:25:36.487Z,20.37
2023-01-25T21:26:36.379Z,20.37
2023-01-25T21:27:36.279Z,20.37
2023-01-25T21:28:36.192Z,20.38
2023-01-25T21:29:36.093Z,20.38
2023-01-25T21:30:35.983Z,20.38
2023-01-25T21:31:35.959Z,20.38
2023-01-25T21:32:35.795Z,20.37
2023-01-25T21:33:35.687Z,20.37
2023-01-25T21:34:35.597Z,20.37
2023-01-25T21:35:35.503Z,20.37
2023-01-25T21:36:35.408Z,20.37
2023-01-25T21:37:35.311Z,20.37
2023-01-25T21:38:35.205Z,20.37
2023-01-25T21:39:35.116Z,20.37
2023-01-25T21:40:35.029Z,20.37
2023-01-25T21:41:34.949Z,20.37
2023-01-25T22:55:27.567Z,20.38
2023-01-25T22:56:27.451Z,20.38
2023-01-25T22:57:27.351Z,20.38
2023-01-25T22:58:27.237Z,20.40
2023-01-25T22:59:27.154Z,20.37
2023-01-25T23:00:27.047Z,20.37
2023-01-25T23:01:26.948Z,20.38
2023-01-25T23:02:26.848Z,20.37
2023-01-25T23:03:26.813Z,20.37
2023-01-25T23:04:26.695Z,20.37
2023-01-25T23:05:26.548Z,20.38
2023-01-25T23:06:26.450Z,20.38
2023-01-25T23:07:26.353Z,20.38
2023-01-25T23:08:26.257Z,20.37
2023-01-25T23:09:26.213Z,20.36
2023-01-25T23:10:26.069Z,20.36
2023-01-25T23:20:25.067Z,20.37
2023-01-25T23:21:24.948Z,20.37
